KAXV/AXV METAR and TAF weather

Enter ICAO airport designator
Station Type Date Time Source
KAXV METAR 2021/07/28 03:35 UTC NOAA

KAXV 280335Z AUTO 00000KT 10SM CLR 21/20 A3006 RMK AO2


Station Type Date Time Source
KAXV Decoded METAR 2021/07/28 03:35 UTC NOAA

Station name not available
Jul 27, 2021 - 11:35 PM EDT / 2021.07.28 0335 UTC
Wind: Calm:0
Visibility: 10 mile(s):0
Sky conditions: clear
Temperature: 69 F (21 C)
Dew Point: 68 F (20 C)
Relative Humidity: 94%
Pressure (altimeter): 30.06 in. Hg (1017 hPa)
ob: KAXV 280335Z AUTO 00000KT 10SM CLR 21/20 A3006 RMK AO2
cycle: 3

Station Type Date Time Source
KAXV TAF UTC NOAA

Error!

Example: see airport list